KGNT/GNT METAR and TAF weather

Enter ICAO airport designator
Station Type Date Time Source
KGNT METAR 2022/06/28 14:35 UTC NOAA

KGNT 281435Z AUTO 00000KT 4SM BR 13/13 A3050 RMK AO2 T01330131


Station Type Date Time Source
KGNT Decoded METAR 2022/06/28 14:35 UTC NOAA

GRANTS-MILAN MUNICIPAL AIRPORT , NM, United States (KGNT) 35-10N 107-54W 1987M
Jun 28, 2022 - 10:35 AM EDT / 2022.06.28 1435 UTC
Wind: Calm:0
Visibility: 4 mile(s):0
Weather: mist
Temperature: 55.9 F (13.3 C)
Dew Point: 55.6 F (13.1 C)
Relative Humidity: 98%
Pressure (altimeter): 30.5 in. Hg (1032 hPa)
ob: KGNT 281435Z AUTO 00000KT 4SM BR 13/13 A3050 RMK AO2 T01330131
cycle: 14

Station Type Date Time Source
KGNT TAF UTC NOAA

Error!

Example: see airport list